LiveATC.Net - Listen to live air traffic control over the Internet! Contact LiveATC.net for advertising information

Find LiveATC Audio Streams


Airport/ARTCC Code

Frequency
(e.g., 124.400, 128.75)
Site-wide search

Browse LiveATC Feeds
LiveATC Coverage Map
Top 50 LiveATC Feeds
Bad Weather Areas

LiveATC FAQ
Offer a LiveATC Feed
Contact LiveATC.net
Press Inquiries

LiveATC on iPhone
LiveATC on Android

LiveATC Mobile
(Mobile browser)

ATC Audio Archives
Interesting Recordings

LiveATC Forums

Home Page
About LiveATC.net
Make a Donation
LiveATC Bookstore

Terms of Use
Privacy Policy

ATC/Radar Sites
U.S. ARTCC Freqs
Canadian Air Freqs

AIRMETs/SIGMETs

FAA Airport Status
Nat'l Airspace Status
Arrival Demand Charts


Server Software By:
Icecast.org
Liquidsoap


Current Potentially Bad Weather Airports
(updated every 30 minutes - sorted alphabetically by ICAO code)



This page lists LiveATC.net airport areas that may be interesting to listen to because of challenging flying (weather) conditions. Challenging weather conditions include low ceilings, limited visibility, high or gusty winds, or thunderstorms. This is an evolving new feature and comments are welcome.

Updated: Thu Jul 24 01:40:01 UTC 2014
Click on airport name to go to that airport area's feeds.

ENKB Twr/App
WX MAP UNAVAILABLEENKB 240120Z AUTO 04005KT 5000NDV BKN001/// OVC005/// 15/15 Q1026
KASE Del/Gnd/Twr/ZDC
kaseKASE 240103Z 13013G28KT 100V160 10SM -RA SCT042 BKN060 OVC100 21/08 A3048 RMK AO2 PK WND 11028/0103 LTG DSNT W-N P0000 T02060078
KASH Gnd/Twr/Misc
kashKASH 240104Z 32012G19KT 10SM TS FEW037 SCT050 BKN090 27/19 A2980 RMK AO2 BKN V SCT LTG DSNT ALQDS WSHFT 0044 PRESRR
KBAF Ground/Tower
kbafKBAF 240102Z 07004KT 7SM -TSRA BKN035 BKN042 OVC095 22/21 A2984 RMK AO2 LTG DSNT ALQDS P0000 T02220206
KBDL Del/Twr
kbdlKBDL 240054Z 31011G21KT 10SM TSRA SCT024CB SCT039 BKN050 27/20 A2982 RMK AO2 WSHFT 0038 RAB54 P0000 T02720200
KNEL/KWRI/ZNY
kwriKWRI 240122Z AUTO 28005KT 10SM -RA FEW006 SCT060 SCT090 BKN120 OVC150 25/21 A2984 RMK AO2 LTG DSNT N-NE RAB0107
KBLM/N12/3N6/KMJX
kmjxKMJX 240115Z AUTO 23004KT 10SM CLR 25/21 A2986 RMK AO1 LTG DSNT W
KBLM/N12/3N6/KMJX
kblmKBLM 240115Z AUTO 22008KT 10SM SCT050 26/20 A2984 RMK AO1 LTG DSNT N
MA/NH/RI/CT Area CTAF
keenKEEN 240115Z AUTO 00000KT 7SM BKN110 21/16 A2983 RMK AO1 LTG DSNT ALQDS TSE0057
MA/NH/RI/CT Area CTAF
koreKORE 240125Z AUTO VCTS A2985 RMK AO2 LTG DSNT ALQDS PWINO $
MA/NH/RI/CT Area CTAF
kfitKFIT 240052Z AUTO 22005KT 10SM VCTS FEW048 28/22 A2980 RMK AO2 LTG DSNT ALQDS SLP088 T02830217
KBVY Ground/Tower
kbvyKBVY 240053Z AUTO 22007KT 10SM CLR 27/21 A2977 RMK AO2 LTG DSNT N SLP075 T02670206
Potomac App (DC ADIZ)
kbwiKBWI 240054Z 00000KT 8SM -TSRA BKN055CB BKN075 BKN120 BKN250 24/22 A2984 RMK AO2 SLP103 OCNL LTGIC W TS W MOV E P0006 T02440217
KCRW Tower/Approach
kcrwKCRW 240054Z COR 01006KT 4SM +TSRA BR SCT018CB BKN042 BKN060 22/21 A2997 RMK AO2 PRESRR SLP142 FRQ LTGICCG NE TS NE MOV E P0062 T02220211
KDCA Tower/Approach
kdcaKDCA 240052Z 31005KT 10SM FEW060 BKN085 BKN200 29/20 A2986 RMK AO2 WSHFT 2357 TSE04RAB17E28 SLP110 OCNL LTGIC DSNT S-SW CB DSNT S-SW MOV SE P0000 T02890200
KDEN Approach
kdenKDEN 240053Z 19021G33KT 10SM FEW070 SCT120 BKN180 27/07 A3025 RMK AO2 PK WND 20040/2359 SLP162 T02720067 $
KDUA CTAF/Unicom
kduaKDUA 240055Z AUTO 12009KT 10SM CLR 26/21 A3008 RMK AO2 LTG DSNT S
KDXR Ground/Tower
kdxrKDXR 240123Z 33014G23KT 5SM -TSRA FEW026 SCT039 BKN055 25/21 A2985 RMK AO2 LTG DSNT ALQDS RAB16 TSB17 PRESRR P0003 T02500206
KDYL CTAF/Unicom
kdylKDYL 240103Z AUTO 18005KT 9SM RA BKN085 BKN110 21/21 A2986 RMK AO2 LTG DSNT ALQDS TSE0057 P0002 T02110211
NY Approach (Liberty South)
kewrKEWR 240123Z 21008KT 10SM -RA FEW025 SCT050 BKN090 OVC130 26/22 A2982 RMK AO2 TSE23 FRQ LTGICCG DSNT SE CB DSNT SE MOV E P0001 $
KFDK Del/Gnd/Twr/CTAF
kfdkKFDK 240055Z AUTO 00000KT 10SM CLR 24/22 A2989 RMK AO2 LTG DSNT E
KFRG ATIS
kfrgKFRG 240053Z 22012G18KT 10SM CLR 24/20 A2981 RMK AO2 LTG DSNT W AND NW SLP094 T02440200
KFWS Ground/Tower
kfwsKFWS 240055Z AUTO 08003KT 5SM HZ CLR 33/19 A3004 RMK AO2 LTG DSNT NE T03260186
KGAI CTAF/UNICOM
kgaiKGAI 240115Z AUTO 00000KT 5SM BKN085 23/21 A2991 RMK AO1 LTG DSNT E
KHEF Del/Gnd/Twr
khefKHEF 240115Z 22003KT 10SM CLR 27/21 A2987 RMK AO1 LTG DSNT SE TSB0058E13
KHFD Tower
khfdKHFD 240053Z 18006KT 10SM FEW095 26/21 A2979 RMK AO2 LTG DSNT W-N SLP087 T02610206
KHPN ATIS
khpnKHPN 240101Z 00000KT 6SM R16/4000VP6000FT TSRA BR SCT020 BKN048 BKN085 23/21 A2981 RMK AO2 OCNL LTGICCG TS E MOV NE PNO $
KJYO CTAF/Del/SFRA
kjyoKJYO 240055Z AUTO 23004KT 10SM CLR 23/23 A2989 RMK AO2 LTG DSNT S
KJFK NY App (CAMRN)
kjfkKJFK 240051Z 19016KT 10SM TS SCT050CB SCT120 BKN250 25/22 A2982 RMK AO2 TSB43 SLP096 FRQ LTGICCG W-NW TS W-NW MOV E T02500217
KLGA NY Approach (EMPYR)
klgaKLGA 240051Z 21010G17KT 10SM TS SCT040CB BKN100 OVC250 29/22 A2980 RMK AO2 TSB32 PRESRR SLP092 CONS LTGICCG OHD TS OHD MOV E T02940217
KLNS Tower
klnsKLNS 240053Z AUTO 23004KT 10SM CLR 22/20 A2987 RMK AO2 LTG DSNT N AND NE RAE35 SLP111 P0003 T02220200 $
KLWM Ground/Tower
klwmKLWM 240054Z 22007KT 10SM CLR 28/22 A2978 RMK AO2 LTG DSNT W-N SLP084 T02780217
KMHT Del/Gnd/Twr
kmhtKMHT 240053Z 32014G20KT 7SM TS BKN032CB OVC065 26/18 A2979 RMK AO2 WSHFT 0020 TSB16 SLP097 FRQ LTGICCCCG SW-NE TS SW-NE MOV E T02610183
KMLU Del/Gnd/Twr/App
kmluKMLU 240112Z 33006KT 10SM BKN065 BKN080 30/22 A2999 RMK AO2 LTG DSNT ALQDS TSE06 PRESFR
KMMU Tower
kmmuKMMU 240045Z 28007KT 10SM SCT085 BKN110 25/22 A2981 RMK TS E MOV E LTGCCCG
KORH Ground/Tower/App
korhKORH 240127Z AUTO 29017G24KT 10SM -RA FEW015 BKN042 OVC080 23/18 A2987 RMK AO2 PK WND 30027/0112 WSHFT 0107 LTG DSNT ALQDS RAB25 P0000 T02280183
KOXC Ground/Tower
koxcKOXC 240115Z 22003KT 10SM CLR 24/20 A2986 RMK AO1 LTG DSNT SW
KPBI Del/Gnd/Twr/App/ZMA
kpbiKPBI 240053Z 16008KT 10SM FEW030 BKN250 29/24 A3004 RMK AO2 SLP172 OCNL LTGIC DSNT NW CB DSNT NW T02890239
KPHL App (N/S Arrival)
kphlKPHL 240054Z 25011KT 10SM -TSRA FEW030 SCT050CB BKN120 OVC250 24/20 A2988 RMK AO2 WSHFT 0000 RAB16 SLP118 CONS LTGICCG DSNT NE VC E-VC SW TS VC E-VC SW MOV SE CB DSNT NE MOV SE P0001 T02440200 $
KPOU Ground/Tower
kpouKPOU 240107Z 13003KT 10SM VCTS FEW048 SCT075 BKN100 22/21 A2981 RMK AO2 LTG DSNT NE-S RAE05 TSE01 P0000 T02220206
KPWM Gnd/Twr/App
kpwmKPWM 240051Z 35005KT 5SM -TSRA BR BKN065CB 22/20 A2977 RMK AO2 RAB17 TSB18 SLP080 OCNL LTGCCCGIC TS OHD TS NW MOV E P0008 T02170200
KRDG Tower/Approach
krdgKRDG 240121Z VRB05KT 10SM VCTS FEW036 BKN070 OVC085 23/21 A2987 RMK AO2 LTG DSNT NE RAB06E20 TSB00E15 P0001 T02280211
KRNO Del/Gnd/Twr/App/ZOA
krnoKRNO 240055Z 29024G30KT 10SM FEW180 29/02 A3009 RMK AO2 PK WND 29030/0053 SLP136 FU DSNT W-NW T02890017
KSDL Ground/Tower
ksdlKSDL 240053Z 22006KT 10SM CLR 43/12 A2981 RMK AO2 LTG DSNT N SLP061 T04280117
KSLC Tower (All)
kslcKSLC 240053Z 18019G26KT 10SM SCT085TCU BKN120 BKN180 38/02 A2993 RMK AO2 PK WND 20033/0022 LTG DSNT SE SLP065 CB DSNT SE AND W TCU OHD AND DSNT S-SW T03830017
KTEB Tower
ktebKTEB 240051Z 22013KT 10SM -TSRA SCT046 SCT060 BKN080 31/21 A2979 RMK AO2 TSB30RAB39 SLP087 FRQ LTGCGICCCCA VC E-SW TS OHD MOV E P0000 T03110206
KTPA Gnd/Twr/App
ktpaKTPA 240053Z 28006KT 10SM FEW035TCU BKN260 29/22 A3002 RMK AO2 SLP166 FRQ LTGIC DSNT E-SE CB DSNT E-SE TCU E T02940222
KTTN Ground/Tower
kttnKTTN 240123Z 24006KT 7SM VCTS -RA FEW110 22/21 A2986 RMK AO2 LTG DSNT S AND SW TSE08 P0004 T02220206
KDMA/KTUS Twr/Ops/ZAB
kdmaKDMA 240128Z AUTO 12019G25KT 10SM -RA FEW110 38/12 A2992 RMK AO2 LTG DSNT S AND W RAB012
KDMA/KTUS Twr/Ops/ZAB
ktusKTUS 240118Z 10010KT 10SM VCTS BKN110 39/11 A2994 RMK AO2 LTG DSNT ALQDS T03940106
PASC CTAF/Unicom/AFIS/App
WX MAP UNAVAILABLEPASC 240053Z 07010KT 10SM OVC007 07/05 A2958 RMK AO2 SLP016 T00720050
PGUA Gnd/Twr/App/Center
pguaPGUA 240128Z AUTO 09009KT 10SM BKN017 29/25 A2979 RMK AO2 CIG 017V022 BKN V SCT RVRNO $
SBPA Gnd/Twr/App
WX MAP UNAVAILABLESBPA 240100Z 07006KT 3000 TSRA BR BKN007 FEW030CB OVC070 17/17 Q1007
ZDC/KSHD/KCHO
kchoKCHO 240053Z 28003KT 4SM BR BKN065 OVC080 23/21 A2989 RMK AO2 LTG DSNT SE RAE23B31E40 TSB03E18 SLP115 P0007 T02280211
ZDC/KSHD/KCHO
kshdKSHD 240055Z AUTO 00000KT 7SM BKN065 OVC080 23/20 A2996 RMK AO2 LTG DSNT E AND SE T02250201